createdAt,value
2018-02-02T00:00:08.744Z,85.30
2018-02-02T00:01:09.295Z,85.20
2018-02-02T00:02:05.969Z,85.20
2018-02-02T00:03:05.798Z,85.20
2018-02-02T00:04:05.947Z,85.20
2018-02-02T00:05:05.526Z,85.20
2018-02-02T00:06:09.435Z,85.00
2018-02-02T00:07:09.067Z,85.00
2018-02-02T00:08:08.018Z,85.00
2018-02-02T00:09:10.860Z,85.00
2018-02-02T00:10:06.369Z,85.00
2018-02-02T00:11:06.044Z,84.90
2018-02-02T00:12:05.524Z,85.00
2018-02-02T00:13:05.634Z,84.90
2018-02-02T00:14:05.770Z,84.80
2018-02-02T00:15:11.345Z,84.80
2018-02-02T00:16:10.601Z,84.80
2018-02-02T00:17:09.181Z,84.80
2018-02-02T00:18:05.852Z,84.80
2018-02-02T00:19:10.893Z,84.80
2018-02-02T00:20:14.405Z,84.80
2018-02-02T00:21:06.193Z,84.70
2018-02-02T00:22:05.521Z,84.80
2018-02-02T00:23:05.653Z,84.80
2018-02-02T00:24:11.193Z,84.80
2018-02-02T00:25:11.862Z,84.80
2018-02-02T00:26:12.640Z,84.80
2018-02-02T00:27:06.090Z,84.80
2018-02-02T00:28:05.975Z,84.70
2018-02-02T00:29:05.821Z,84.60
2018-02-02T00:30:12.198Z,84.70
2018-02-02T00:31:05.942Z,84.80
2018-02-02T00:32:05.467Z,84.80
2018-02-02T00:33:08.739Z,84.70
2018-02-02T00:34:06.171Z,84.60
2018-02-02T00:35:09.156Z,84.80
2018-02-02T00:36:05.661Z,84.80
2018-02-02T00:37:06.288Z,84.80
2018-02-02T00:38:05.936Z,84.90
2018-02-02T00:39:06.004Z,84.80
2018-02-02T00:40:10.834Z,84.80
2018-02-02T00:41:09.454Z,84.80
2018-02-02T00:42:10.973Z,84.90
2018-02-02T00:43:14.943Z,85.00
2018-02-02T00:44:11.788Z,85.00
2018-02-02T00:45:05.961Z,85.00
2018-02-02T00:46:08.882Z,85.00
2018-02-02T00:47:06.297Z,85.00
2018-02-02T00:48:05.884Z,85.00
2018-02-02T00:49:11.292Z,85.10
2018-02-02T00:50:05.669Z,85.10
2018-02-02T00:51:06.371Z,85.10
2018-02-02T00:52:08.165Z,85.30
2018-02-02T00:53:05.777Z,85.30
2018-02-02T00:54:09.522Z,85.30
2018-02-02T00:55:10.874Z,85.30
2018-02-02T00:56:06.308Z,85.30
2018-02-02T00:57:10.997Z,85.20
2018-02-02T00:58:11.215Z,85.20
2018-02-02T00:59:11.842Z,85.10
2018-02-02T01:00:06.382Z,85.10
2018-02-02T01:01:05.816Z,85.10
2018-02-02T01:02:11.333Z,85.00
2018-02-02T01:03:05.513Z,85.00
2018-02-02T01:04:09.453Z,84.80
2018-02-02T01:05:06.099Z,84.80
2018-02-02T01:06:06.207Z,84.80
2018-02-02T01:07:10.847Z,84.60
2018-02-02T01:08:06.188Z,84.60
2018-02-02T01:09:09.274Z,84.40
2018-02-02T01:10:05.754Z,84.40
2018-02-02T01:11:05.686Z,84.30
2018-02-02T01:12:08.803Z,84.20
2018-02-02T01:13:06.248Z,84.20
2018-02-02T01:14:10.999Z,84.20
2018-02-02T01:15:11.439Z,83.90
2018-02-02T01:16:05.868Z,83.90
2018-02-02T01:17:05.448Z,83.70
2018-02-02T01:18:12.265Z,83.70
2018-02-02T01:19:13.807Z,83.60
2018-02-02T01:20:07.208Z,83.60
2018-02-02T01:21:06.781Z,83.50
2018-02-02T01:22:08.764Z,83.50
2018-02-02T01:23:09.113Z,83.50
2018-02-02T01:24:05.868Z,83.50
2018-02-02T01:25:05.499Z,83.40
2018-02-02T01:26:05.554Z,83.40
2018-02-02T01:27:06.374Z,83.40
2018-02-02T01:28:09.036Z,83.30
2018-02-02T01:29:05.734Z,83.30
2018-02-02T01:30:08.916Z,83.10
2018-02-02T01:31:09.451Z,83.10
2018-02-02T01:32:11.004Z,83.10
2018-02-02T01:33:14.194Z,83.00
2018-02-02T01:34:10.624Z,83.00
2018-02-02T01:35:06.376Z,83.00
2018-02-02T01:36:05.557Z,82.90
2018-02-02T01:37:09.251Z,82.80
2018-02-02T01:38:05.657Z,82.80
2018-02-02T01:39:10.686Z,82.70
2018-02-02T01:40:05.880Z,82.60
2018-02-02T01:41:06.450Z,82.70
2018-02-02T01:42:06.075Z,82.70
2018-02-02T01:43:08.717Z,82.90
2018-02-02T01:44:09.721Z,82.70
2018-02-02T01:45:06.212Z,82.70
2018-02-02T01:46:06.212Z,82.70
2018-02-02T01:47:08.522Z,82.70
2018-02-02T01:48:09.152Z,82.70
2018-02-02T01:49:05.836Z,82.70
2018-02-02T01:50:09.017Z,82.60
2018-02-02T01:51:09.006Z,82.60
2018-02-02T01:52:06.446Z,82.70
2018-02-02T01:53:06.325Z,82.60
2018-02-02T01:54:05.638Z,82.60
2018-02-02T01:55:06.321Z,82.60
2018-02-02T01:56:05.838Z,82.50
2018-02-02T01:57:11.280Z,82.20
2018-02-02T01:58:11.434Z,82.20
2018-02-02T01:59:10.769Z,82.10
2018-02-02T02:00:13.834Z,82.00
2018-02-02T02:01:06.220Z,82.00
2018-02-02T02:02:06.008Z,82.00
2018-02-02T02:03:10.591Z,82.10
2018-02-02T02:04:10.821Z,82.10
2018-02-02T02:05:06.482Z,82.10
2018-02-02T02:06:05.877Z,82.10
2018-02-02T02:07:05.836Z,82.20
2018-02-02T02:08:05.991Z,82.20
2018-02-02T02:09:10.892Z,82.20
2018-02-02T02:10:11.066Z,82.30
2018-02-02T02:11:08.175Z,82.30
2018-02-02T02:12:08.817Z,82.30
2018-02-02T02:13:06.526Z,82.30
2018-02-02T02:14:06.171Z,82.30
2018-02-02T02:15:11.060Z,82.40
2018-02-02T02:16:05.809Z,82.30
2018-02-02T02:17:10.831Z,82.40
2018-02-02T02:18:08.750Z,82.40
2018-02-02T02:19:06.126Z,82.40
2018-02-02T02:20:06.407Z,82.40
2018-02-02T02:21:09.113Z,82.40
2018-02-02T02:22:05.701Z,82.40
2018-02-02T02:23:05.600Z,82.30
2018-02-02T02:24:05.878Z,82.20
2018-02-02T02:25:05.884Z,82.20
2018-02-02T02:26:06.339Z,82.20
2018-02-02T02:27:06.257Z,82.20
2018-02-02T02:28:06.170Z,82.20
2018-02-02T02:29:11.134Z,82.20
2018-02-02T02:30:06.231Z,82.20
2018-02-02T02:31:10.805Z,82.20
2018-02-02T02:32:11.096Z,82.20
2018-02-02T02:33:05.566Z,82.20
2018-02-02T02:34:10.764Z,82.20
2018-02-02T02:35:11.098Z,82.20
2018-02-02T02:36:06.427Z,82.20
2018-02-02T02:37:06.066Z,82.20
2018-02-02T02:38:05.924Z,82.00
2018-02-02T02:39:06.336Z,82.20
2018-02-02T02:40:10.975Z,82.30
2018-02-02T02:41:06.568Z,82.30
2018-02-02T02:42:05.665Z,82.30
2018-02-02T02:43:05.852Z,82.30
2018-02-02T02:44:05.888Z,82.40
2018-02-02T02:45:11.271Z,82.30
2018-02-02T02:46:05.556Z,82.20
2018-02-02T02:47:09.415Z,82.00
2018-02-02T02:48:10.837Z,82.00
2018-02-02T02:49:06.333Z,81.70
2018-02-02T02:50:05.459Z,81.60
2018-02-02T02:51:11.374Z,81.50
2018-02-02T02:52:06.434Z,81.50
2018-02-02T02:53:16.558Z,81.30
2018-02-02T02:54:05.941Z,81.40
2018-02-02T02:55:06.133Z,81.10
2018-02-02T02:56:08.054Z,81.10
2018-02-02T02:57:05.444Z,81.00
2018-02-02T02:58:10.820Z,81.00
2018-02-02T02:59:06.088Z,81.10
2018-02-02T03:00:05.516Z,80.90
2018-02-02T03:01:10.659Z,80.90
2018-02-02T03:02:08.816Z,80.80
2018-02-02T03:03:09.468Z,80.90
2018-02-02T03:04:16.456Z,80.90
2018-02-02T03:05:09.282Z,80.90
2018-02-02T03:06:20.070Z,80.90
2018-02-02T03:07:06.499Z,80.90
2018-02-02T03:08:06.025Z,80.90
2018-02-02T03:09:06.703Z,80.90
2018-02-02T03:10:05.575Z,80.90
2018-02-02T03:11:05.992Z,80.90
2018-02-02T03:12:06.051Z,80.90
2018-02-02T03:13:05.574Z,80.90
2018-02-02T03:14:09.380Z,80.80
2018-02-02T03:15:05.785Z,80.80
2018-02-02T03:16:08.558Z,80.80
2018-02-02T03:17:11.009Z,80.90
2018-02-02T03:18:09.317Z,80.90
2018-02-02T03:19:05.677Z,80.80
2018-02-02T03:20:05.759Z,80.80
2018-02-02T03:21:08.610Z,80.90
2018-02-02T03:22:06.061Z,80.90
2018-02-02T03:23:06.631Z,80.90
2018-02-02T03:24:06.231Z,80.90
2018-02-02T03:25:11.181Z,80.90
2018-02-02T03:26:11.406Z,80.80
2018-02-02T03:27:08.910Z,80.90
2018-02-02T03:28:09.096Z,80.90
2018-02-02T03:29:05.625Z,80.90
2018-02-02T03:30:06.569Z,80.90
2018-02-02T03:31:06.065Z,80.90
2018-02-02T03:32:13.571Z,80.90
2018-02-02T03:33:08.688Z,80.80
2018-02-02T03:34:09.266Z,80.80
2018-02-02T03:35:05.950Z,80.80
2018-02-02T03:36:10.420Z,80.90
2018-02-02T03:37:05.756Z,80.90
2018-02-02T03:38:06.296Z,80.80
2018-02-02T03:39:05.880Z,80.80
2018-02-02T03:40:11.086Z,80.70
2018-02-02T03:41:08.509Z,80.70
2018-02-02T03:42:11.099Z,80.70
2018-02-02T03:43:08.023Z,80.60
2018-02-02T03:44:06.355Z,80.70
2018-02-02T03:45:08.899Z,80.50
2018-02-02T03:46:06.637Z,80.50
2018-02-02T03:47:10.629Z,80.50
2018-02-02T03:48:05.949Z,80.50
2018-02-02T03:49:13.824Z,80.40
2018-02-02T03:50:06.214Z,80.40
2018-02-02T03:51:06.403Z,80.40
2018-02-02T03:52:06.002Z,80.40
2018-02-02T03:53:08.849Z,80.40
2018-02-02T03:54:11.405Z,80.30
2018-02-02T03:55:09.037Z,80.30
2018-02-02T03:56:05.615Z,80.30
2018-02-02T03:57:05.893Z,80.30
2018-02-02T03:58:08.909Z,80.20
2018-02-02T03:59:16.733Z,80.30
2018-02-02T04:00:11.554Z,80.30
2018-02-02T04:01:06.159Z,80.30
2018-02-02T04:02:13.968Z,80.40
2018-02-02T04:03:06.395Z,80.40
2018-02-02T04:04:11.120Z,80.40
2018-02-02T04:05:05.671Z,80.40
2018-02-02T04:06:06.688Z,80.40
2018-02-02T04:07:06.120Z,80.50
2018-02-02T04:08:05.680Z,80.50
2018-02-02T04:09:06.133Z,80.50
2018-02-02T04:10:06.993Z,80.50
2018-02-02T04:11:05.382Z,80.60
2018-02-02T04:12:05.859Z,80.60
2018-02-02T04:13:07.105Z,80.60
2018-02-02T04:14:10.680Z,80.70
2018-02-02T04:15:05.714Z,80.70
2018-02-02T04:16:05.795Z,80.70
2018-02-02T04:17:11.031Z,80.80
2018-02-02T04:18:10.711Z,80.70
2018-02-02T04:19:08.619Z,80.80
2018-02-02T04:20:06.069Z,80.80
2018-02-02T04:21:07.613Z,80.90
2018-02-02T04:22:05.420Z,80.90
2018-02-02T04:23:10.471Z,81.00
2018-02-02T04:24:05.699Z,81.10
2018-02-02T04:25:05.956Z,81.20
2018-02-02T04:26:05.694Z,80.00
2018-02-02T04:27:12.149Z,81.20
2018-02-02T04:28:10.849Z,81.30
2018-02-02T04:29:06.147Z,81.30
2018-02-02T04:30:05.585Z,81.40
2018-02-02T04:31:05.688Z,81.40
2018-02-02T04:32:13.929Z,81.40
2018-02-02T04:33:11.620Z,81.40
2018-02-02T04:34:06.051Z,81.40
2018-02-02T04:35:09.099Z,81.40
2018-02-02T04:36:05.719Z,81.40
2018-02-02T04:37:06.191Z,81.40
2018-02-02T04:38:06.310Z,81.50
2018-02-02T04:39:06.305Z,81.50
2018-02-02T04:40:08.687Z,81.60
2018-02-02T04:41:08.671Z,81.60
2018-02-02T04:42:11.167Z,81.60
2018-02-02T04:43:05.540Z,81.60
2018-02-02T04:44:05.819Z,81.60
2018-02-02T04:45:11.401Z,81.50
2018-02-02T04:46:08.534Z,81.50
2018-02-02T04:47:06.191Z,81.60
2018-02-02T04:48:05.587Z,81.60
2018-02-02T04:49:09.254Z,81.60
2018-02-02T04:50:05.649Z,81.60
2018-02-02T04:51:10.592Z,81.60
2018-02-02T04:52:05.960Z,81.60
2018-02-02T04:53:05.869Z,56.00
2018-02-02T04:54:06.531Z,81.70
2018-02-02T04:55:06.105Z,81.70
2018-02-02T04:56:11.050Z,81.70
2018-02-02T04:57:09.163Z,82.00
2018-02-02T04:58:05.620Z,81.90
2018-02-02T04:59:06.009Z,82.00
2018-02-02T05:00:08.977Z,82.00
2018-02-02T05:01:11.574Z,81.90
2018-02-02T05:02:05.918Z,81.90
2018-02-02T05:03:11.259Z,81.90
2018-02-02T05:04:06.515Z,81.90
2018-02-02T05:05:06.453Z,82.00
2018-02-02T05:06:06.040Z,81.90
2018-02-02T05:07:06.398Z,81.90
2018-02-02T05:08:05.751Z,81.80
2018-02-02T05:09:06.337Z,81.70
2018-02-02T05:10:10.642Z,81.70
2018-02-02T05:11:09.211Z,81.60
2018-02-02T05:12:05.930Z,81.60
2018-02-02T05:13:06.275Z,81.60
2018-02-02T05:14:05.733Z,81.60
2018-02-02T05:15:06.426Z,81.50
2018-02-02T05:16:08.560Z,81.40
2018-02-02T05:17:06.192Z,81.40
2018-02-02T05:18:07.014Z,81.40
2018-02-02T05:19:10.588Z,81.40
2018-02-02T05:20:15.113Z,81.30
2018-02-02T05:21:05.783Z,81.30
2018-02-02T05:22:05.514Z,81.30
2018-02-02T05:23:11.034Z,81.30
2018-02-02T05:24:11.102Z,81.20
2018-02-02T05:25:09.832Z,81.20
2018-02-02T05:26:11.359Z,81.20
2018-02-02T05:27:05.835Z,81.20
2018-02-02T05:28:08.578Z,81.20
2018-02-02T05:29:08.584Z,81.20
2018-02-02T05:30:05.998Z,81.20
2018-02-02T05:31:05.637Z,81.20
2018-02-02T05:32:08.700Z,81.20
2018-02-02T05:33:11.103Z,81.20
2018-02-02T05:34:11.207Z,81.10
2018-02-02T05:35:06.542Z,81.20
2018-02-02T05:36:06.421Z,81.20
2018-02-02T05:37:05.762Z,81.20
2018-02-02T05:38:08.898Z,81.20
2018-02-02T05:39:06.317Z,81.20
2018-02-02T05:40:08.164Z,81.20
2018-02-02T05:41:10.545Z,81.20
2018-02-02T05:42:11.032Z,81.30
2018-02-02T05:43:11.243Z,81.20
2018-02-02T05:44:06.021Z,81.20
2018-02-02T05:45:06.293Z,81.30
2018-02-02T05:46:05.800Z,81.40
2018-02-02T05:47:11.367Z,81.50
2018-02-02T05:48:05.560Z,81.50
2018-02-02T05:49:06.569Z,81.50
2018-02-02T05:50:08.372Z,81.70
2018-02-02T05:51:06.336Z,81.70
2018-02-02T05:52:06.202Z,81.60
2018-02-02T05:53:05.891Z,81.70
2018-02-02T05:54:08.285Z,81.70
2018-02-02T05:55:06.228Z,81.80
2018-02-02T05:56:08.982Z,81.80
2018-02-02T05:57:11.404Z,81.80
2018-02-02T05:58:10.788Z,81.90
2018-02-02T05:59:05.956Z,81.80
2018-02-02T06:00:06.442Z,81.90
2018-02-02T06:01:06.515Z,81.90
2018-02-02T06:02:11.182Z,81.80
2018-02-02T06:03:05.626Z,81.80
2018-02-02T06:04:14.447Z,81.80
2018-02-02T06:05:05.932Z,81.80
2018-02-02T06:06:05.825Z,81.70
2018-02-02T06:07:05.524Z,81.70
2018-02-02T06:08:10.572Z,81.70
2018-02-02T06:09:10.777Z,81.70
2018-02-02T06:10:08.808Z,81.70
2018-02-02T06:11:06.404Z,81.70
2018-02-02T06:12:06.226Z,81.70
2018-02-02T06:13:06.178Z,81.60
2018-02-02T06:14:08.432Z,81.60
2018-02-02T06:15:06.472Z,81.50
2018-02-02T06:16:11.397Z,81.40
2018-02-02T06:17:05.871Z,81.40
2018-02-02T06:18:05.812Z,81.50
2018-02-02T06:19:11.150Z,81.50
2018-02-02T06:20:06.325Z,81.30
2018-02-02T06:21:09.008Z,81.30
2018-02-02T06:22:11.485Z,81.30
2018-02-02T06:23:05.714Z,81.40
2018-02-02T06:24:10.638Z,81.40
2018-02-02T06:25:05.770Z,81.40
2018-02-02T06:26:06.377Z,81.40
2018-02-02T06:27:10.897Z,81.40
2018-02-02T06:28:06.196Z,81.40
2018-02-02T06:29:05.523Z,81.50
2018-02-02T06:30:06.301Z,81.50
2018-02-02T06:31:05.978Z,81.50
2018-02-02T06:32:06.636Z,81.50
2018-02-02T06:33:10.095Z,81.60
2018-02-02T06:34:05.606Z,81.50
2018-02-02T06:35:06.160Z,81.50
2018-02-02T06:36:06.790Z,81.60
2018-02-02T06:37:09.813Z,81.60
2018-02-02T06:38:08.762Z,81.60
2018-02-02T06:39:06.292Z,81.60
2018-02-02T06:40:08.299Z,81.60
2018-02-02T06:41:05.774Z,81.60
2018-02-02T06:42:11.465Z,81.60
2018-02-02T06:43:10.733Z,81.60
2018-02-02T06:44:10.849Z,81.60
2018-02-02T06:45:05.965Z,81.60
2018-02-02T06:46:06.379Z,81.60
2018-02-02T06:47:09.170Z,81.50
2018-02-02T06:48:05.592Z,81.50
2018-02-02T06:49:11.076Z,81.40
2018-02-02T06:50:08.718Z,81.40
2018-02-02T06:51:06.411Z,81.40
2018-02-02T06:52:06.253Z,81.40
2018-02-02T06:53:10.544Z,81.30
2018-02-02T06:54:06.701Z,81.30
2018-02-02T06:55:06.527Z,81.30
2018-02-02T06:56:06.266Z,81.30
2018-02-02T06:57:06.421Z,81.20
2018-02-02T06:58:07.330Z,81.10
2018-02-02T06:59:06.278Z,81.10
2018-02-02T07:00:08.356Z,81.10
2018-02-02T07:01:08.917Z,81.00
2018-02-02T07:02:06.579Z,80.90
2018-02-02T07:03:05.844Z,80.70
2018-02-02T07:04:05.783Z,80.60
2018-02-02T07:05:12.491Z,80.40
2018-02-02T07:06:05.895Z,80.40
2018-02-02T07:07:11.050Z,80.30
2018-02-02T07:08:11.450Z,80.20
2018-02-02T07:09:08.995Z,80.00
2018-02-02T07:10:08.980Z,80.00
2018-02-02T07:11:06.437Z,80.00
2018-02-02T07:12:10.894Z,79.90
2018-02-02T07:13:05.938Z,79.90
2018-02-02T07:14:06.465Z,79.70
2018-02-02T07:15:08.907Z,79.50
2018-02-02T07:16:06.428Z,79.60
2018-02-02T07:17:06.501Z,79.50
2018-02-02T07:18:06.028Z,79.30
2018-02-02T07:19:10.744Z,79.00
2018-02-02T07:20:05.994Z,79.00
2018-02-02T07:21:05.674Z,79.20
2018-02-02T07:22:06.099Z,79.20
2018-02-02T07:23:11.063Z,79.10
2018-02-02T07:24:11.321Z,79.00
2018-02-02T07:25:06.522Z,78.90
2018-02-02T07:26:06.359Z,79.00
2018-02-02T07:27:10.924Z,79.00
2018-02-02T07:28:06.540Z,79.20
2018-02-02T07:29:08.342Z,78.90
2018-02-02T07:30:05.773Z,79.00
2018-02-02T07:31:08.023Z,78.80
2018-02-02T07:32:05.545Z,78.80
2018-02-02T07:33:06.276Z,78.70
2018-02-02T07:34:05.536Z,78.80
2018-02-02T07:35:06.191Z,78.70
2018-02-02T07:36:05.982Z,78.60
2018-02-02T07:37:10.602Z,78.40
2018-02-02T07:38:10.685Z,78.40
2018-02-02T07:39:05.675Z,78.30
2018-02-02T07:40:08.702Z,78.40
2018-02-02T07:41:08.848Z,78.40
2018-02-02T07:42:06.310Z,78.30
2018-02-02T07:43:10.041Z,78.20
2018-02-02T07:44:06.401Z,78.20
2018-02-02T07:45:11.148Z,78.20
2018-02-02T07:46:06.720Z,78.00
2018-02-02T07:47:06.386Z,77.80
2018-02-02T07:48:05.885Z,77.90
2018-02-02T07:49:16.403Z,78.00
2018-02-02T07:50:05.976Z,78.00
2018-02-02T07:51:05.448Z,77.80
2018-02-02T07:52:06.177Z,77.70
2018-02-02T07:53:05.547Z,77.60
2018-02-02T07:54:08.697Z,77.30
2018-02-02T07:55:09.180Z,77.20
2018-02-02T07:56:10.681Z,77.20
2018-02-02T07:57:06.021Z,77.20
2018-02-02T07:58:05.669Z,77.20
2018-02-02T07:59:06.282Z,77.20
2018-02-02T08:00:10.785Z,77.30
2018-02-02T08:01:11.210Z,77.20
2018-02-02T08:02:07.273Z,77.00
2018-02-02T08:03:06.218Z,77.00
2018-02-02T08:04:06.331Z,76.90
2018-02-02T08:05:10.635Z,77.00
2018-02-02T08:06:08.733Z,76.90
2018-02-02T08:07:09.000Z,77.00
2018-02-02T08:08:06.357Z,77.00
2018-02-02T08:09:06.315Z,77.10
2018-02-02T08:10:11.099Z,77.20
2018-02-02T08:11:05.615Z,77.20
2018-02-02T08:12:06.150Z,77.10
2018-02-02T08:13:11.162Z,77.20
2018-02-02T08:14:06.292Z,77.20
2018-02-02T08:15:05.824Z,77.00
2018-02-02T08:16:06.377Z,76.90
2018-02-02T08:17:11.104Z,76.70
2018-02-02T08:18:05.556Z,75.20
2018-02-02T08:19:08.241Z,76.60
2018-02-02T08:20:08.247Z,76.60
2018-02-02T08:21:05.633Z,76.60
2018-02-02T08:22:11.224Z,76.70
2018-02-02T08:23:10.590Z,76.70
2018-02-02T08:24:05.760Z,76.80
2018-02-02T08:25:05.482Z,77.00
2018-02-02T08:26:05.749Z,77.00
2018-02-02T08:27:05.802Z,77.10
2018-02-02T08:28:06.132Z,77.10
2018-02-02T08:29:08.494Z,77.10
2018-02-02T08:30:08.660Z,77.00
2018-02-02T08:31:06.146Z,77.20
2018-02-02T08:32:05.584Z,77.10
2018-02-02T08:33:05.610Z,77.10
2018-02-02T08:34:06.106Z,77.00
2018-02-02T08:35:05.645Z,76.90
2018-02-02T08:36:05.971Z,76.90
2018-02-02T08:37:06.339Z,76.70
2018-02-02T08:38:09.569Z,76.50
2018-02-02T08:39:06.053Z,76.50
2018-02-02T08:40:08.813Z,76.00
2018-02-02T08:41:11.232Z,76.00
2018-02-02T08:42:09.244Z,75.80
2018-02-02T08:43:09.196Z,75.80
2018-02-02T08:44:08.165Z,75.60
2018-02-02T08:45:05.815Z,75.60
2018-02-02T08:46:09.269Z,74.80
2018-02-02T08:47:05.753Z,74.80
2018-02-02T08:48:08.884Z,74.30
2018-02-02T08:49:14.201Z,74.20
2018-02-02T08:50:05.620Z,74.20
2018-02-02T08:51:05.774Z,74.20
2018-02-02T08:52:08.863Z,74.40
2018-02-02T08:53:10.858Z,74.40
2018-02-02T08:54:10.997Z,74.40
2018-02-02T08:55:12.661Z,74.40
2018-02-02T08:56:06.315Z,74.20
2018-02-02T08:57:10.953Z,74.00
2018-02-02T08:58:06.532Z,74.00
2018-02-02T08:59:08.205Z,73.50
2018-02-02T09:00:05.594Z,73.50
2018-02-02T09:01:05.856Z,73.20
2018-02-02T09:02:05.835Z,73.20
2018-02-02T09:03:09.711Z,73.10
2018-02-02T09:04:06.106Z,73.10
2018-02-02T09:05:06.864Z,72.80
2018-02-02T09:06:05.558Z,72.50
2018-02-02T09:07:09.167Z,72.60
2018-02-02T09:08:09.282Z,72.70
2018-02-02T09:09:05.817Z,72.70
2018-02-02T09:10:08.122Z,72.40
2018-02-02T09:11:06.359Z,72.40
2018-02-02T09:12:06.717Z,72.20
2018-02-02T09:13:10.698Z,72.20
2018-02-02T09:14:12.008Z,71.80
2018-02-02T09:15:08.933Z,71.90
2018-02-02T09:16:06.354Z,71.80
2018-02-02T09:17:09.675Z,71.60
2018-02-02T09:18:06.071Z,71.60
2018-02-02T09:19:13.823Z,71.10
2018-02-02T09:20:06.120Z,71.20
2018-02-02T09:21:05.767Z,71.00
2018-02-02T09:22:09.649Z,70.80
2018-02-02T09:23:08.970Z,71.00
2018-02-02T09:24:09.492Z,70.60
2018-02-02T09:25:05.883Z,70.60
2018-02-02T09:26:11.312Z,70.70
2018-02-02T09:27:11.533Z,70.70
2018-02-02T09:28:06.037Z,70.80
2018-02-02T09:29:10.749Z,70.50
2018-02-02T09:30:06.167Z,70.30
2018-02-02T09:31:13.742Z,70.30
2018-02-02T09:32:09.499Z,70.40
2018-02-02T09:33:09.168Z,70.40
2018-02-02T09:34:10.736Z,69.90
2018-02-02T09:35:16.522Z,69.80
2018-02-02T09:36:11.094Z,69.80
2018-02-02T09:37:08.825Z,70.10
2018-02-02T09:38:06.578Z,70.00
2018-02-02T09:39:05.920Z,70.30
2018-02-02T09:40:08.341Z,70.50
2018-02-02T09:41:09.041Z,70.60
2018-02-02T09:42:05.543Z,70.60
2018-02-02T09:43:06.197Z,70.40
2018-02-02T09:44:10.945Z,70.20
2018-02-02T09:45:06.293Z,70.20
2018-02-02T09:46:06.275Z,70.40
2018-02-02T09:47:10.730Z,70.30
2018-02-02T09:48:10.891Z,70.10
2018-02-02T09:49:06.015Z,70.10
2018-02-02T09:50:10.743Z,70.30
2018-02-02T09:51:06.248Z,69.80
2018-02-02T09:52:05.820Z,69.60
2018-02-02T09:53:06.505Z,69.70
2018-02-02T09:54:09.068Z,70.30
2018-02-02T09:55:10.527Z,70.00
2018-02-02T09:56:08.929Z,69.80
2018-02-02T09:57:06.529Z,69.80
2018-02-02T09:58:07.046Z,69.50
2018-02-02T09:59:10.545Z,69.30
2018-02-02T10:00:05.726Z,69.30
2018-02-02T10:01:06.642Z,69.20
2018-02-02T10:02:06.409Z,69.40
2018-02-02T10:03:06.344Z,69.70
2018-02-02T10:04:05.645Z,69.80
2018-02-02T10:05:08.191Z,69.80
2018-02-02T10:06:05.646Z,69.80
2018-02-02T10:07:06.120Z,69.60
2018-02-02T10:08:06.363Z,69.60
2018-02-02T10:09:10.790Z,69.20
2018-02-02T10:10:07.938Z,69.20
2018-02-02T10:11:05.596Z,69.10
2018-02-02T10:12:10.923Z,69.10
2018-02-02T10:13:06.426Z,68.90
2018-02-02T10:14:05.996Z,68.80
2018-02-02T10:15:10.223Z,69.10
2018-02-02T10:16:05.707Z,69.10
2018-02-02T10:17:09.431Z,69.40
2018-02-02T10:18:05.842Z,69.30
2018-02-02T10:19:06.442Z,69.40
2018-02-02T10:20:06.374Z,69.60
2018-02-02T10:21:05.981Z,69.80
2018-02-02T10:22:09.037Z,69.80
2018-02-02T10:23:05.735Z,69.80
2018-02-02T10:24:05.892Z,69.70
2018-02-02T10:25:08.741Z,69.90
2018-02-02T10:26:06.139Z,69.90
2018-02-02T10:27:11.105Z,70.30
2018-02-02T10:28:08.946Z,70.50
2018-02-02T10:29:06.358Z,70.50
2018-02-02T10:30:05.771Z,70.50
2018-02-02T10:31:06.016Z,70.60
2018-02-02T10:32:05.767Z,70.80
2018-02-02T10:33:06.445Z,70.80
2018-02-02T10:34:06.030Z,70.50
2018-02-02T10:35:10.686Z,70.30
2018-02-02T10:36:11.027Z,70.30
2018-02-02T10:37:11.288Z,70.40
2018-02-02T10:38:13.900Z,69.90
2018-02-02T10:39:09.858Z,69.80
2018-02-02T10:40:06.366Z,69.80
2018-02-02T10:41:05.888Z,69.90
2018-02-02T10:42:05.590Z,69.80
2018-02-02T10:43:05.630Z,69.60
2018-02-02T10:44:06.056Z,69.60
2018-02-02T10:45:05.583Z,69.80
2018-02-02T10:46:06.344Z,70.20
2018-02-02T10:47:08.978Z,70.50
2018-02-02T10:48:06.432Z,70.50
2018-02-02T10:49:06.665Z,70.60
2018-02-02T10:50:05.730Z,70.30
2018-02-02T10:51:10.708Z,70.50
2018-02-02T10:52:05.903Z,70.70
2018-02-02T10:53:10.947Z,70.80
2018-02-02T10:54:11.380Z,70.90
2018-02-02T10:55:05.928Z,70.90
2018-02-02T10:56:08.291Z,71.10
2018-02-02T10:57:05.890Z,71.10
2018-02-02T10:58:06.554Z,71.20
2018-02-02T10:59:06.059Z,71.00
2018-02-02T11:00:08.309Z,70.80
2018-02-02T11:01:08.517Z,70.80
2018-02-02T11:02:11.053Z,70.90
2018-02-02T11:03:09.620Z,71.00
2018-02-02T11:04:11.025Z,71.00
2018-02-02T11:05:06.591Z,71.00
2018-02-02T11:06:05.601Z,71.10
2018-02-02T11:07:06.207Z,71.00
2018-02-02T11:08:06.665Z,71.10
2018-02-02T11:09:06.366Z,71.10
2018-02-02T11:10:05.842Z,71.20
2018-02-02T11:11:05.966Z,71.40
2018-02-02T11:12:06.256Z,71.60
2018-02-02T11:13:06.423Z,71.70
2018-02-02T11:14:06.372Z,71.80
2018-02-02T11:15:06.456Z,71.80
2018-02-02T11:16:05.488Z,71.90
2018-02-02T11:17:06.696Z,71.90
2018-02-02T11:18:06.344Z,72.00
2018-02-02T11:19:06.002Z,72.20
2018-02-02T11:20:10.498Z,72.30
2018-02-02T11:21:05.886Z,72.30
2018-02-02T11:22:08.764Z,72.70
2018-02-02T11:23:09.417Z,72.80
2018-02-02T11:24:10.978Z,72.80
2018-02-02T11:25:11.429Z,72.90
2018-02-02T11:26:10.804Z,72.70
2018-02-02T11:27:08.951Z,72.80
2018-02-02T11:28:09.462Z,72.80
2018-02-02T11:29:08.777Z,72.90
2018-02-02T11:30:06.584Z,72.90
2018-02-02T11:31:06.537Z,73.10
2018-02-02T11:32:06.389Z,73.20
2018-02-02T11:33:09.394Z,73.30
2018-02-02T11:34:05.714Z,73.30
2018-02-02T11:35:11.158Z,73.60
2018-02-02T11:36:05.621Z,73.50
2018-02-02T11:37:09.147Z,73.60
2018-02-02T11:38:05.609Z,73.50
2018-02-02T11:39:06.118Z,73.60
2018-02-02T11:40:06.112Z,73.80
2018-02-02T11:41:08.156Z,74.10
2018-02-02T11:42:05.551Z,74.20
2018-02-02T11:43:05.651Z,74.40
2018-02-02T11:44:06.203Z,74.50
2018-02-02T11:45:05.941Z,74.50
2018-02-02T11:46:11.333Z,74.70
2018-02-02T11:47:09.343Z,74.70
2018-02-02T11:48:05.886Z,74.70
2018-02-02T11:49:05.796Z,74.80
2018-02-02T11:50:05.466Z,74.90
2018-02-02T11:51:05.546Z,75.00
2018-02-02T11:52:11.147Z,75.20
2018-02-02T11:53:06.522Z,75.20
2018-02-02T11:54:05.743Z,75.30
2018-02-02T11:55:09.718Z,75.40
2018-02-02T11:56:06.134Z,75.40
2018-02-02T11:57:06.031Z,75.40
2018-02-02T11:58:06.636Z,75.50
2018-02-02T11:59:09.444Z,75.60
2018-02-02T12:00:08.278Z,75.60
2018-02-02T12:01:05.582Z,75.60
2018-02-02T12:02:06.392Z,75.70
2018-02-02T12:03:06.305Z,75.90
2018-02-02T12:04:08.939Z,76.00
2018-02-02T12:05:09.100Z,76.00
2018-02-02T12:06:13.940Z,76.10
2018-02-02T12:07:06.341Z,76.10
2018-02-02T12:08:05.613Z,76.20
2018-02-02T12:09:09.808Z,76.20
2018-02-02T12:10:10.934Z,76.20
2018-02-02T12:11:11.412Z,76.20
2018-02-02T12:12:08.611Z,76.20
2018-02-02T12:13:11.144Z,76.20
2018-02-02T12:14:08.663Z,76.20
2018-02-02T12:15:05.998Z,76.20
2018-02-02T12:16:06.295Z,76.30
2018-02-02T12:17:06.069Z,76.30
2018-02-02T12:18:08.163Z,76.40
2018-02-02T12:19:08.826Z,76.40
2018-02-02T12:20:06.272Z,76.40
2018-02-02T12:21:06.808Z,76.60
2018-02-02T12:22:06.339Z,76.60
2018-02-02T12:23:05.942Z,76.70
2018-02-02T12:24:09.004Z,76.90
2018-02-02T12:25:06.742Z,76.90
2018-02-02T12:26:06.409Z,76.90
2018-02-02T12:27:06.286Z,77.00
2018-02-02T12:28:05.848Z,77.00
2018-02-02T12:29:08.735Z,77.00
2018-02-02T12:30:12.129Z,77.00
2018-02-02T12:31:05.668Z,76.90
2018-02-02T12:32:08.964Z,77.00
2018-02-02T12:33:11.435Z,77.00
2018-02-02T12:34:05.664Z,77.10
2018-02-02T12:35:09.290Z,76.90
2018-02-02T12:36:06.094Z,76.90
2018-02-02T12:37:06.537Z,76.90
2018-02-02T12:38:11.336Z,76.80
2018-02-02T12:39:08.460Z,76.70
2018-02-02T12:40:05.848Z,76.70
2018-02-02T12:41:06.477Z,76.60
2018-02-02T12:42:06.010Z,76.60
2018-02-02T12:43:10.724Z,76.70
2018-02-02T12:44:06.123Z,76.80
2018-02-02T12:45:10.838Z,76.90
2018-02-02T12:46:08.821Z,77.10
2018-02-02T12:47:06.416Z,77.10
2018-02-02T12:48:06.414Z,77.10
2018-02-02T12:49:10.885Z,77.10
2018-02-02T12:50:06.025Z,77.10
2018-02-02T12:51:05.611Z,77.00
2018-02-02T12:52:05.925Z,77.00